Time;durP1;ratioP1;P1;durP2;ratioP2;P2;SDS_P1;SDS_P2;PMS_P1;PMS_P2;Temp;Humidity;BMP_temperature;BMP_pressure;BME280_temperature;BME280_humidity;BME280_pressure;Samples;Min_cycle;Max_cycle;Signal;HPM_P1;HPM_P2
2022/04/21 00:01:13;;;;;;;2.47;1.60;;;20.30;84.90;;;;;;4241953;27;20221;-73
2022/04/21 00:03:16;;;;;;;4.03;1.70;;;20.30;85.40;;;;;;4238769;27;20217;-72
2022/04/21 00:05:19;;;;;;;2.53;1.80;;;20.20;86.20;;;;;;4238076;27;20209;-72
2022/04/21 00:07:22;;;;;;;2.42;1.85;;;20.20;85.50;;;;;;4241577;27;20630;-73
2022/04/21 00:09:25;;;;;;;3.15;1.90;;;20.20;86.20;;;;;;4240500;27;20213;-73
2022/04/21 00:11:27;;;;;;;3.08;1.80;;;20.20;86.30;;;;;;4242077;27;20217;-72
2022/04/21 00:13:30;;;;;;;2.53;1.88;;;20.20;86.60;;;;;;4242158;27;21041;-72
2022/04/21 00:15:33;;;;;;;2.83;1.70;;;20.20;86.60;;;;;;4240582;27;20266;-72
2022/04/21 00:17:35;;;;;;;2.65;1.83;;;20.20;86.50;;;;;;4241173;27;20277;-73
2022/04/21 00:19:39;;;;;;;3.15;1.70;;;20.20;86.70;;;;;;4238765;27;20220;-72
2022/04/21 00:24:01;;;;;;;2.03;1.75;;;20.10;86.60;;;;;;4239126;27;20224;-72
2022/04/21 00:26:04;;;;;;;1.67;1.33;;;20.20;86.60;;;;;;4241852;27;20238;-73
2022/04/21 00:28:07;;;;;;;2.38;1.52;;;20.20;86.30;;;;;;4242257;27;20340;-73
2022/04/21 00:30:11;;;;;;;3.42;1.92;;;20.20;86.70;;;;;;4240777;27;20289;-73
2022/04/21 00:32:13;;;;;;;2.90;1.60;;;20.20;87.30;;;;;;4240666;27;20262;-72
2022/04/21 00:34:18;;;;;;;2.22;1.50;;;20.10;87.20;;;;;;4241156;27;20672;-72
2022/04/21 00:36:22;;;;;;;1.92;1.40;;;20.10;86.70;;;;;;4241220;27;20716;-72
2022/04/21 00:38:24;;;;;;;3.03;1.70;;;20.10;86.70;;;;;;4240068;27;20213;-72
2022/04/21 00:40:29;;;;;;;3.08;1.92;;;20.10;86.60;;;;;;4242175;27;20225;-72
2022/04/21 00:42:31;;;;;;;2.70;1.48;;;20.10;87.30;;;;;;4239465;27;20254;-73
2022/04/21 00:44:34;;;;;;;2.45;1.88;;;20.10;86.60;;;;;;4241734;27;20221;-72
2022/04/21 00:46:39;;;;;;;2.00;1.73;;;20.10;86.20;;;;;;4240432;27;20275;-72
2022/04/21 00:48:42;;;;;;;4.10;1.95;;;20.10;85.70;;;;;;4240962;27;20217;-72
2022/04/21 00:50:44;;;;;;;2.75;1.83;;;20.10;85.40;;;;;;4241629;27;21719;-72
2022/04/21 00:52:48;;;;;;;2.92;1.80;;;20.10;86.40;;;;;;4240861;27;20282;-72
2022/04/21 00:54:50;;;;;;;2.20;1.60;;;20.00;85.20;;;;;;4238574;27;20265;-73
2022/04/21 00:56:53;;;;;;;2.55;1.50;;;20.00;86.30;;;;;;4241573;27;20730;-72
2022/04/21 00:58:58;;;;;;;2.45;1.25;;;20.10;85.20;;;;;;4242341;27;20266;-72
2022/04/21 01:01:01;;;;;;;2.92;1.80;;;20.10;87.20;;;;;;4242045;27;20225;-72
2022/04/21 01:03:04;;;;;;;2.90;1.85;;;20.10;86.20;;;;;;4240997;27;20213;-72
2022/04/21 01:05:08;;;;;;;2.72;1.73;;;20.00;86.60;;;;;;4241286;27;20217;-72
2022/04/21 01:07:10;;;;;;;2.30;1.65;;;20.00;86.70;;;;;;4239323;27;20225;-72
2022/04/21 01:09:13;;;;;;;4.07;1.90;;;20.10;85.60;;;;;;4240616;27;20317;-72
2022/04/21 01:11:16;;;;;;;2.20;1.60;;;20.00;87.00;;;;;;4236927;27;20293;-72
2022/04/21 01:13:19;;;;;;;2.20;1.70;;;20.00;86.40;;;;;;4241684;27;20277;-73
2022/04/21 01:15:22;;;;;;;2.33;1.60;;;20.00;87.90;;;;;;4242021;27;20274;-72
2022/04/21 01:17:31;;;;;;;2.42;1.52;;;20.00;86.00;;;;;;4241677;27;20630;-73
2022/04/21 01:19:34;;;;;;;2.55;1.77;;;20.00;87.00;;;;;;4240927;27;20277;-72
2022/04/21 01:21:38;;;;;;;1.88;1.35;;;20.00;86.50;;;;;;4241011;27;20282;-72
2022/04/21 01:23:40;;;;;;;2.58;1.70;;;20.00;87.60;;;;;;4242317;27;20258;-73
2022/04/21 01:25:43;;;;;;;2.42;1.70;;;20.00;85.70;;;;;;4239543;27;20220;-72
2022/04/21 01:27:47;;;;;;;2.85;2.00;;;20.00;88.30;;;;;;4238965;27;20232;-72
2022/04/21 01:29:50;;;;;;;2.88;1.95;;;20.00;86.30;;;;;;4238760;28;20278;-72
2022/04/21 01:31:52;;;;;;;3.80;1.85;;;20.00;88.40;;;;;;4241094;28;20265;-72
2022/04/21 01:33:55;;;;;;;1.80;1.50;;;20.00;87.30;;;;;;4239260;28;20261;-73
2022/04/21 01:35:57;;;;;;;2.83;1.92;;;20.00;87.80;;;;;;4241472;28;20213;-72
2022/04/21 01:42:41;;;;;;;2.00;1.45;;;20.00;88.30;;;;;;4245943;27;20193;-72
2022/04/21 01:44:43;;;;;;;1.95;1.58;;;20.00;87.80;;;;;;4240380;28;20831;-73
2022/04/21 01:46:48;;;;;;;3.38;1.77;;;20.00;88.40;;;;;;4241416;28;20221;-72
2022/04/21 01:48:51;;;;;;;2.05;1.48;;;20.00;87.50;;;;;;4240718;27;20217;-72
2022/04/21 01:50:53;;;;;;;2.75;1.77;;;20.00;87.90;;;;;;4241180;28;20261;-73
2022/04/21 01:52:57;;;;;;;2.50;1.65;;;20.00;87.90;;;;;;4237516;28;20286;-72
2022/04/21 01:55:01;;;;;;;2.05;1.60;;;20.00;88.60;;;;;;4240929;28;20233;-72
2022/04/21 01:57:04;;;;;;;2.15;1.80;;;19.90;88.10;;;;;;4240742;27;20221;-73
2022/04/21 01:59:07;;;;;;;3.97;1.90;;;20.00;88.40;;;;;;4241100;27;20213;-72
2022/04/21 02:01:09;;;;;;;3.85;1.80;;;19.90;87.50;;;;;;4239029;27;20242;-72
2022/04/21 02:03:13;;;;;;;2.25;1.55;;;19.90;88.20;;;;;;4238337;27;20213;-72
2022/04/21 02:05:15;;;;;;;2.10;1.70;;;19.90;88.20;;;;;;4239511;27;20225;-72
2022/04/21 02:07:18;;;;;;;2.75;1.60;;;19.90;89.00;;;;;;4240883;28;20262;-72
2022/04/21 02:09:20;;;;;;;2.50;1.70;;;19.90;88.50;;;;;;4239887;27;20214;-72
2022/04/21 02:11:24;;;;;;;2.17;1.50;;;19.90;88.90;;;;;;4240961;28;20229;-72
2022/04/21 02:13:26;;;;;;;3.88;1.75;;;19.90;88.80;;;;;;4240918;27;20286;-72
2022/04/21 02:15:28;;;;;;;2.22;1.63;;;19.90;88.60;;;;;;4241110;28;20229;-72
2022/04/21 02:17:32;;;;;;;3.60;1.80;;;19.90;88.60;;;;;;4241219;27;20270;-72
2022/04/21 02:19:34;;;;;;;2.75;1.77;;;19.90;89.00;;;;;;4237656;27;20205;-73
2022/04/21 02:21:36;;;;;;;3.22;1.60;;;19.90;89.10;;;;;;4239330;27;20221;-73
2022/04/21 02:23:39;;;;;;;3.55;1.80;;;19.90;88.80;;;;;;4241176;28;21501;-72
2022/04/21 02:25:41;;;;;;;2.20;1.73;;;19.90;88.90;;;;;;4241444;27;20225;-73
2022/04/21 02:27:46;;;;;;;2.08;1.70;;;19.90;89.10;;;;;;4240601;27;20224;-73
2022/04/21 02:29:49;;;;;;;2.28;1.55;;;19.90;89.10;;;;;;4240145;27;20745;-73
2022/04/21 02:31:51;;;;;;;3.67;1.85;;;19.90;88.60;;;;;;4238260;28;20217;-73
2022/04/21 02:33:53;;;;;;;2.58;1.92;;;19.80;87.90;;;;;;4240202;28;20233;-73
2022/04/21 02:35:56;;;;;;;2.25;1.70;;;19.90;88.90;;;;;;4238437;28;20282;-72
2022/04/21 02:37:58;;;;;;;1.83;1.50;;;19.80;88.80;;;;;;4239545;27;20612;-72
2022/04/21 02:40:00;;;;;;;1.70;1.60;;;19.90;89.00;;;;;;4243433;27;20266;-73
2022/04/21 02:42:04;;;;;;;2.58;1.55;;;19.80;88.90;;;;;;4243341;27;20266;-72
2022/04/21 02:44:07;;;;;;;2.60;1.60;;;19.80;89.20;;;;;;4244472;27;20213;-72
2022/04/21 02:46:10;;;;;;;3.17;1.88;;;19.80;89.10;;;;;;4244253;27;20529;-72
2022/04/21 02:48:12;;;;;;;2.28;1.70;;;19.80;90.00;;;;;;4244114;27;20701;-72
2022/04/21 02:50:18;;;;;;;3.60;1.70;;;19.80;89.00;;;;;;4244020;27;20213;-72
2022/04/21 02:52:21;;;;;;;2.55;1.67;;;19.80;89.10;;;;;;4229876;27;20226;-72
2022/04/21 02:59:03;;;;;;;2.05;1.50;;;19.80;89.40;;;;;;4244113;27;20205;-72
2022/04/21 03:01:07;;;;;;;2.65;1.52;;;19.80;89.00;;;;;;4242084;27;20217;-72
2022/04/21 03:03:09;;;;;;;5.03;2.17;;;19.80;89.00;;;;;;4242300;27;21045;-72
2022/04/21 03:05:12;;;;;;;2.80;1.88;;;19.80;89.50;;;;;;4243002;27;20550;-72
2022/04/21 03:07:16;;;;;;;2.20;1.40;;;19.70;89.10;;;;;;4242066;27;20979;-72
2022/04/21 03:09:19;;;;;;;2.00;1.60;;;19.80;89.20;;;;;;4242682;27;20289;-72
2022/04/21 03:11:21;;;;;;;3.40;1.67;;;19.70;89.20;;;;;;4243010;27;20221;-73
2022/04/21 03:13:23;;;;;;;2.08;1.73;;;19.80;89.20;;;;;;4243588;27;20281;-72
2022/04/21 03:15:26;;;;;;;1.70;1.40;;;19.80;89.40;;;;;;4241713;27;20296;-72
2022/04/21 03:17:30;;;;;;;2.47;1.80;;;19.80;89.30;;;;;;4243088;27;20221;-72
2022/04/21 03:19:32;;;;;;;2.40;1.60;;;19.70;89.20;;;;;;4242594;27;20228;-72
2022/04/21 03:24:20;;;;;;;2.40;1.67;;;19.70;89.00;;;;;;4216347;27;20293;-72
2022/04/21 03:26:23;;;;;;;2.72;1.83;;;19.70;89.50;;;;;;4240389;27;20715;-72
2022/04/21 03:28:25;;;;;;;3.65;1.80;;;19.70;89.10;;;;;;4241614;27;20581;-72
2022/04/21 03:30:27;;;;;;;2.35;1.67;;;19.70;89.10;;;;;;4243192;27;20285;-73
2022/04/21 03:32:31;;;;;;;3.53;1.67;;;19.70;89.00;;;;;;4242222;27;20669;-72
2022/04/21 03:34:33;;;;;;;2.13;1.60;;;19.60;89.10;;;;;;4243024;27;20241;-72
2022/04/21 03:36:36;;;;;;;2.78;1.80;;;19.60;88.90;;;;;;4242320;27;20233;-72
2022/04/21 03:38:39;;;;;;;2.28;1.70;;;19.70;89.00;;;;;;4241911;27;20229;-72
2022/04/21 03:40:41;;;;;;;2.28;1.77;;;19.70;89.00;;;;;;4240698;27;20220;-73
2022/04/21 03:42:44;;;;;;;3.45;1.48;;;19.70;89.00;;;;;;4241697;27;20270;-72
2022/04/21 03:44:46;;;;;;;2.55;1.80;;;19.70;89.10;;;;;;4239418;27;20274;-73
2022/04/21 03:46:49;;;;;;;3.63;1.60;;;19.70;88.90;;;;;;4241178;27;20221;-73
2022/04/21 03:48:53;;;;;;;1.90;1.70;;;19.70;88.90;;;;;;4242987;27;20238;-73
2022/04/21 03:50:55;;;;;;;2.47;1.77;;;19.60;88.80;;;;;;4241694;27;20265;-72
2022/04/21 03:52:58;;;;;;;3.63;1.80;;;19.70;88.90;;;;;;4242547;27;20221;-72
2022/04/21 03:55:00;;;;;;;3.45;1.65;;;19.60;89.00;;;;;;4242616;27;20333;-72
2022/04/21 03:57:03;;;;;;;2.17;1.50;;;19.70;89.20;;;;;;4242573;27;20277;-72
2022/04/21 03:59:05;;;;;;;3.58;1.90;;;19.70;89.30;;;;;;4242693;27;20220;-72
2022/04/21 04:01:08;;;;;;;2.28;1.65;;;19.70;89.10;;;;;;4241411;27;20282;-72
2022/04/21 04:03:10;;;;;;;3.10;1.60;;;19.60;89.10;;;;;;4241600;27;20217;-72
2022/04/21 04:05:14;;;;;;;2.75;1.70;;;19.60;89.10;;;;;;4241569;27;20217;-73
2022/04/21 04:11:56;;;;;;;2.03;1.60;;;19.60;89.10;;;;;;4242041;27;20196;-72
2022/04/21 04:13:58;;;;;;;2.20;1.60;;;19.60;89.50;;;;;;4241821;27;20305;-72
2022/04/21 04:16:00;;;;;;;2.42;1.70;;;19.60;89.30;;;;;;4240916;27;20258;-73
2022/04/21 04:18:02;;;;;;;2.10;1.60;;;19.60;89.40;;;;;;4240456;27;20225;-72
2022/04/21 04:20:06;;;;;;;2.92;1.70;;;19.60;89.50;;;;;;4241853;27;20626;-72
2022/04/21 04:22:10;;;;;;;2.67;1.90;;;19.60;89.40;;;;;;4242448;27;20221;-72
2022/04/21 04:24:12;;;;;;;2.00;1.77;;;19.60;89.50;;;;;;4242017;27;20216;-72
2022/04/21 04:26:14;;;;;;;1.88;1.52;;;19.60;89.30;;;;;;4241756;27;20661;-72
2022/04/21 04:28:16;;;;;;;2.13;1.42;;;19.60;89.50;;;;;;4240931;27;20653;-73
2022/04/21 04:30:19;;;;;;;2.38;1.48;;;19.60;89.40;;;;;;4242672;27;20228;-72
2022/04/21 04:32:21;;;;;;;2.05;1.67;;;19.60;89.40;;;;;;4240988;27;20645;-72
2022/04/21 04:34:24;;;;;;;2.55;1.65;;;19.60;89.40;;;;;;4239611;27;20576;-72
2022/04/21 04:36:27;;;;;;;1.58;1.48;;;19.60;89.60;;;;;;4241795;27;20237;-73
2022/04/21 04:38:30;;;;;;;2.38;1.45;;;19.60;89.70;;;;;;4239796;27;20221;-72
2022/04/21 04:40:33;;;;;;;1.90;1.50;;;19.60;89.70;;;;;;4241875;27;20229;-72
2022/04/21 04:42:34;;;;;;;2.78;1.67;;;19.50;89.70;;;;;;4241890;27;20637;-72
2022/04/21 04:44:36;;;;;;;2.83;1.40;;;19.60;89.60;;;;;;4242675;27;20221;-72
2022/04/21 04:46:38;;;;;;;2.78;1.73;;;19.60;89.70;;;;;;4241778;27;20665;-72
2022/04/21 04:48:40;;;;;;;3.08;1.70;;;19.60;89.70;;;;;;4241408;27;20221;-72
2022/04/21 04:50:42;;;;;;;1.83;1.50;;;19.50;89.40;;;;;;4241813;27;20225;-72
2022/04/21 04:52:45;;;;;;;1.50;1.30;;;19.50;89.70;;;;;;4239915;27;20216;-73
2022/04/21 04:54:48;;;;;;;3.30;1.52;;;19.60;90.20;;;;;;4241509;27;20224;-72
2022/04/21 04:56:51;;;;;;;3.42;1.55;;;19.60;89.90;;;;;;4241147;27;20254;-72
2022/04/21 04:58:53;;;;;;;1.77;1.52;;;19.50;89.60;;;;;;4240995;27;20204;-73
2022/04/21 05:00:55;;;;;;;3.33;1.65;;;19.50;89.70;;;;;;4241167;27;20269;-72
2022/04/21 05:02:58;;;;;;;3.03;1.73;;;19.60;89.80;;;;;;4240498;27;20316;-72
2022/04/21 05:05:00;;;;;;;2.33;1.73;;;19.50;89.60;;;;;;4240377;27;20325;-72
2022/04/21 05:07:02;;;;;;;2.40;1.60;;;19.50;89.60;;;;;;4240239;27;20261;-72
2022/04/21 05:09:06;;;;;;;2.35;1.60;;;19.60;89.70;;;;;;4236980;27;20687;-73
2022/04/21 05:11:11;;;;;;;2.13;1.63;;;19.60;89.80;;;;;;4240578;27;20270;-72
2022/04/21 05:13:13;;;;;;;3.00;1.70;;;19.60;90.00;;;;;;4240168;27;20669;-72
2022/04/21 05:15:17;;;;;;;2.50;1.77;;;19.50;89.70;;;;;;4239230;27;20696;-73
2022/04/21 05:17:20;;;;;;;2.15;1.55;;;19.50;90.00;;;;;;4240160;27;20225;-73
2022/04/21 05:19:22;;;;;;;2.10;1.60;;;19.60;90.00;;;;;;4239628;27;20221;-72
2022/04/21 05:21:26;;;;;;;1.83;1.65;;;19.60;90.00;;;;;;4240634;27;20285;-72
2022/04/21 05:23:33;;;;;;;2.53;1.90;;;19.60;89.90;;;;;;4240200;27;20217;-72
2022/04/21 05:25:37;;;;;;;2.05;1.60;;;19.60;90.00;;;;;;4238925;28;20213;-72
2022/04/21 05:27:41;;;;;;;3.13;1.50;;;19.60;90.00;;;;;;4237391;28;20225;-72
2022/04/21 05:32:05;;;;;;;3.70;1.60;;;19.60;90.10;;;;;;4239677;28;20217;-72
2022/04/21 05:34:08;;;;;;;2.45;1.80;;;19.60;90.10;;;;;;4240047;28;20217;-72
2022/04/21 05:36:12;;;;;;;2.50;1.55;;;19.60;90.20;;;;;;4240145;28;20248;-72
2022/04/21 05:38:16;;;;;;;1.65;1.55;;;19.60;90.20;;;;;;4239623;28;20225;-72
2022/04/21 05:40:20;;;;;;;3.22;1.70;;;19.60;90.10;;;;;;4239308;28;20878;-72
2022/04/21 05:42:23;;;;;;;2.17;1.60;;;19.60;90.10;;;;;;4237592;27;20657;-72
2022/04/21 05:44:28;;;;;;;2.80;1.60;;;19.60;90.20;;;;;;4236749;28;20278;-72
2022/04/21 05:46:31;;;;;;;2.30;1.70;;;19.60;90.20;;;;;;4237334;28;20301;-72
2022/04/21 05:48:34;;;;;;;2.15;1.80;;;19.60;90.40;;;;;;4238836;28;20247;-72
2022/04/21 05:50:37;;;;;;;3.53;2.03;;;19.60;90.20;;;;;;4240005;28;20649;-72
2022/04/21 05:52:41;;;;;;;1.83;1.50;;;19.60;90.30;;;;;;4238989;27;20229;-72
2022/04/21 05:54:43;;;;;;;2.03;1.38;;;19.60;90.20;;;;;;4240320;27;20222;-72
2022/04/21 05:56:46;;;;;;;3.08;1.77;;;19.60;90.40;;;;;;4240367;27;20225;-72
2022/04/21 05:58:48;;;;;;;2.10;1.70;;;19.60;90.30;;;;;;4239548;27;20217;-72
2022/04/21 06:00:52;;;;;;;3.00;1.63;;;19.60;90.10;;;;;;4237680;27;20619;-72
2022/04/21 06:02:55;;;;;;;3.83;1.92;;;19.60;90.30;;;;;;4239423;27;20221;-72
2022/04/21 06:04:59;;;;;;;2.60;1.60;;;19.60;90.30;;;;;;4239793;27;20225;-72
2022/04/21 06:07:01;;;;;;;1.90;1.60;;;19.60;90.40;;;;;;4239924;27;20229;-71
2022/04/21 06:09:03;;;;;;;2.17;1.80;;;19.70;90.40;;;;;;4239187;28;20217;-72
2022/04/21 06:11:06;;;;;;;2.80;1.70;;;19.60;90.40;;;;;;4240385;28;20229;-72
2022/04/21 06:13:08;;;;;;;2.75;1.58;;;19.70;90.50;;;;;;4239385;27;20225;-72
2022/04/21 06:15:11;;;;;;;2.10;1.48;;;19.60;90.30;;;;;;4242081;27;20244;-72
2022/04/21 06:17:14;;;;;;;2.15;1.83;;;19.60;90.50;;;;;;4241221;27;20217;-72
2022/04/21 06:19:17;;;;;;;2.05;1.42;;;19.70;90.40;;;;;;4243177;27;20269;-72
2022/04/21 06:21:19;;;;;;;2.13;1.55;;;19.70;90.60;;;;;;4243504;27;20265;-72
2022/04/21 06:23:22;;;;;;;2.35;1.67;;;19.60;90.30;;;;;;4243363;27;20301;-72
2022/04/21 06:25:24;;;;;;;3.17;1.55;;;19.70;90.60;;;;;;4242670;27;20219;-72
2022/04/21 06:27:27;;;;;;;2.08;1.55;;;19.70;90.50;;;;;;4242899;27;20217;-72
2022/04/21 06:29:29;;;;;;;2.88;1.63;;;19.70;90.40;;;;;;4243071;27;20289;-72
2022/04/21 06:31:32;;;;;;;2.05;1.60;;;19.70;90.50;;;;;;4243587;27;20261;-72
2022/04/21 06:33:36;;;;;;;1.50;1.40;;;19.60;90.80;;;;;;4241484;27;20273;-72
2022/04/21 06:35:38;;;;;;;2.17;1.92;;;19.60;90.40;;;;;;4242110;27;20329;-72
2022/04/21 06:37:42;;;;;;;2.60;1.90;;;19.70;90.50;;;;;;4243673;27;20245;-72
2022/04/21 06:39:44;;;;;;;2.13;1.60;;;19.70;90.50;;;;;;4242807;27;20658;-72
2022/04/21 06:41:46;;;;;;;4.40;1.70;;;19.60;90.60;;;;;;4243491;27;20702;-72
2022/04/21 06:48:28;;;;;;;2.80;1.60;;;19.60;90.60;;;;;;4243975;27;20205;-72
2022/04/21 06:50:33;;;;;;;2.17;1.63;;;19.60;90.90;;;;;;4242205;27;20220;-72
2022/04/21 06:52:36;;;;;;;2.42;1.83;;;19.60;90.30;;;;;;4225746;27;20222;-72
2022/04/21 06:54:39;;;;;;;2.38;1.88;;;19.70;90.30;;;;;;4226544;27;20561;-72
2022/04/21 06:56:43;;;;;;;4.00;1.95;;;19.70;90.70;;;;;;4237553;27;20357;-72
2022/04/21 06:58:46;;;;;;;4.65;2.10;;;19.60;89.90;;;;;;4239807;27;20209;-72
2022/04/21 07:00:48;;;;;;;8.70;2.95;;;19.60;89.60;;;;;;4241011;27;20238;-72
2022/04/21 07:02:52;;;;;;;6.68;3.70;;;19.40;89.00;;;;;;4243220;27;20221;-72
2022/04/21 07:04:54;;;;;;;4.25;3.80;;;18.90;88.30;;;;;;4239610;27;20243;-72
2022/04/21 07:06:58;;;;;;;10.48;4.75;;;18.60;88.70;;;;;;4238826;27;20542;-73
2022/04/21 07:09:01;;;;;;;8.45;4.07;;;18.30;89.00;;;;;;4238668;27;20225;-75
2022/04/21 07:11:03;;;;;;;8.10;4.68;;;18.20;89.30;;;;;;4243214;27;20220;-73
2022/04/21 07:13:09;;;;;;;11.18;4.60;;;18.00;89.30;;;;;;4242407;27;20234;-73
2022/04/21 07:15:12;;;;;;;7.85;4.25;;;17.90;89.70;;;;;;4237672;27;20269;-73
2022/04/21 07:17:15;;;;;;;7.78;4.50;;;17.80;89.60;;;;;;4234873;27;20968;-74
2022/04/21 07:19:17;;;;;;;10.85;4.45;;;17.80;89.60;;;;;;4238138;27;20213;-73
2022/04/21 07:21:20;;;;;;;8.20;4.55;;;17.80;89.60;;;;;;4235472;27;20221;-74
2022/04/21 07:23:23;;;;;;;8.25;4.43;;;17.80;89.60;;;;;;4237722;27;20281;-74
2022/04/21 07:25:26;;;;;;;10.80;4.70;;;17.70;89.50;;;;;;4228152;27;20682;-74
2022/04/21 07:27:29;;;;;;;5.53;4.65;;;17.70;89.10;;;;;;4237920;27;20213;-75
2022/04/21 07:29:31;;;;;;;9.18;4.65;;;17.70;89.10;;;;;;4241497;27;20221;-75
2022/04/21 07:31:35;;;;;;;8.93;4.50;;;17.80;89.10;;;;;;4238507;27;21635;-73
2022/04/21 07:33:37;;;;;;;8.00;4.35;;;17.80;89.20;;;;;;4240875;27;20213;-74
2022/04/21 07:35:41;;;;;;;7.10;4.13;;;17.70;89.00;;;;;;4234794;27;20201;-72
2022/04/21 07:37:44;;;;;;;17.70;4.85;;;17.80;88.80;;;;;;4239635;27;20237;-73
2022/04/21 07:39:47;;;;;;;6.05;4.03;;;17.90;88.80;;;;;;4235298;27;20277;-73
2022/04/21 07:41:50;;;;;;;6.50;4.50;;;18.00;88.60;;;;;;4236219;27;20326;-72
2022/04/21 07:43:53;;;;;;;9.35;4.40;;;17.80;88.70;;;;;;4240163;27;20572;-72
2022/04/21 07:45:56;;;;;;;10.40;4.25;;;17.90;88.40;;;;;;4233651;27;20694;-73
2022/04/21 07:47:59;;;;;;;8.10;3.95;;;17.90;88.30;;;;;;4241189;27;20218;-73
2022/04/21 07:50:01;;;;;;;5.95;4.13;;;17.80;88.40;;;;;;4233950;27;20214;-72
2022/04/21 07:54:24;;;;;;;10.60;4.18;;;17.80;88.90;;;;;;4241361;27;20209;-74
2022/04/21 07:56:28;;;;;;;8.00;4.20;;;17.90;87.90;;;;;;4232749;27;20244;-74
2022/04/21 07:58:30;;;;;;;5.65;4.05;;;17.90;87.90;;;;;;4238063;27;20711;-75
2022/04/21 08:00:36;;;;;;;8.10;3.58;;;18.00;87.80;;;;;;4231966;27;20210;-73
2022/04/21 08:02:40;;;;;;;8.50;3.83;;;18.00;87.70;;;;;;4235072;27;20238;-73
2022/04/21 08:04:43;;;;;;;6.15;4.28;;;18.10;87.70;;;;;;4236104;27;20225;-74
2022/04/21 08:06:45;;;;;;;9.07;3.95;;;18.20;87.30;;;;;;4235314;27;20261;-72
2022/04/21 08:08:47;;;;;;;9.65;3.88;;;18.10;87.20;;;;;;4236187;27;20217;-73
2022/04/21 08:10:50;;;;;;;9.82;3.97;;;18.20;87.40;;;;;;4234214;27;20274;-73
2022/04/21 08:12:54;;;;;;;6.32;3.83;;;18.20;87.20;;;;;;4236345;27;20213;-74
2022/04/21 08:14:57;;;;;;;6.55;3.40;;;18.20;87.30;;;;;;4234005;27;20225;-75
2022/04/21 08:16:59;;;;;;;7.28;4.07;;;18.20;88.10;;;;;;4233280;27;20650;-75
2022/04/21 08:19:03;;;;;;;7.85;3.60;;;18.20;87.30;;;;;;4239792;27;20663;-73
2022/04/21 08:21:06;;;;;;;5.60;3.28;;;18.30;86.90;;;;;;4232339;27;20229;-75
2022/04/21 08:23:08;;;;;;;5.45;3.38;;;18.20;87.30;;;;;;4238112;27;20213;-74
2022/04/21 08:32:41;;;;;;;5.97;3.30;;;18.40;86.50;;;;;;4235025;27;20610;-75
2022/04/21 08:34:43;;;;;;;7.75;3.40;;;18.60;86.30;;;;;;4234123;27;20630;-73
2022/04/21 08:36:45;;;;;;;6.65;3.00;;;18.70;85.90;;;;;;4230927;27;20233;-76
2022/04/21 08:38:48;;;;;;;9.25;3.08;;;18.70;85.80;;;;;;4238411;27;20217;-76
2022/04/21 08:40:53;;;;;;;9.60;3.05;;;18.70;85.90;;;;;;4237617;27;20213;-76
2022/04/21 08:42:57;;;;;;;4.90;2.90;;;18.70;86.10;;;;;;4238211;27;20217;-77
2022/04/21 08:44:59;;;;;;;6.15;2.85;;;18.80;85.60;;;;;;4236966;27;20221;-75
2022/04/21 08:47:06;;;;;;;5.25;2.70;;;18.70;85.50;;;;;;4234882;27;20713;-79
2022/04/21 08:49:11;;;;;;;5.65;2.92;;;18.70;85.10;;;;;;4238710;27;20273;-78
2022/04/21 08:51:14;;;;;;;5.00;2.65;;;18.80;85.10;;;;;;4233705;27;20715;-75
2022/04/21 08:53:19;;;;;;;4.55;2.70;;;18.90;84.50;;;;;;4235428;27;20217;-79
2022/04/21 08:55:21;;;;;;;5.97;2.63;;;19.00;84.30;;;;;;4237633;27;20633;-76
2022/04/21 08:57:30;;;;;;;7.35;2.63;;;19.00;83.90;;;;;;4239146;27;20289;-81
2022/04/21 08:59:36;;;;;;;10.40;2.70;;;19.00;83.90;;;;;;4240618;27;20327;-81
2022/04/21 09:01:38;;;;;;;7.95;2.55;;;19.00;83.50;;;;;;4239874;27;20213;-77
2022/04/21 09:03:42;;;;;;;3.13;2.38;;;19.10;83.60;;;;;;4236717;27;20270;-78
2022/04/21 09:05:45;;;;;;;3.45;2.15;;;19.10;83.50;;;;;;4239004;27;20627;-78
2022/04/21 09:07:49;;;;;;;4.50;2.70;;;19.10;83.90;;;;;;4239757;27;20269;-76
2022/04/21 09:10:05;;;;;;;6.95;2.80;;;19.20;83.80;;;;;;4235063;27;21038;-77
2022/04/21 09:12:19;;;;;;;7.97;2.45;;;19.20;83.50;;;;;;4236942;27;20250;-79
2022/04/21 09:14:21;;;;;;;3.42;2.30;;;19.30;83.90;;;;;;4236440;27;20274;-76
2022/04/21 09:16:34;;;;;;;5.45;2.65;;;19.30;83.10;;;;;;4234543;27;20216;-76
2022/04/21 09:18:37;;;;;;;5.43;2.38;;;19.30;82.90;;;;;;4232405;27;22367;-78
2022/04/21 09:20:41;;;;;;;4.03;2.80;;;19.40;83.10;;;;;;4234568;27;20209;-78
2022/04/21 09:22:48;;;;;;;4.85;2.40;;;19.30;82.40;;;;;;4238239;27;20216;-76
2022/04/21 09:24:53;;;;;;;6.05;2.50;;;19.40;82.50;;;;;;4238127;27;20205;-76
2022/04/21 09:26:57;;;;;;;5.68;2.53;;;19.30;82.40;;;;;;4242009;27;20261;-75
2022/04/21 09:28:59;;;;;;;5.32;2.53;;;19.30;82.20;;;;;;4238395;27;20224;-75
2022/04/21 09:31:02;;;;;;;5.93;3.03;;;19.30;82.00;;;;;;4233785;27;20611;-79
2022/04/21 09:33:05;;;;;;;5.60;2.33;;;19.20;82.50;;;;;;4238406;27;20251;-82
2022/04/21 09:35:10;;;;;;;7.60;2.83;;;19.20;82.90;;;;;;4234933;27;20214;-79
2022/04/21 09:37:18;;;;;;;4.90;2.50;;;19.30;83.10;;;;;;4239044;27;20749;-77
2022/04/21 09:39:22;;;;;;;4.43;2.60;;;19.20;82.90;;;;;;4237282;27;20216;-78
2022/04/21 09:41:29;;;;;;;11.30;2.92;;;19.30;83.00;;;;;;4227263;27;20218;-75
2022/04/21 09:43:35;;;;;;;12.90;2.90;;;19.30;83.20;;;;;;4234331;27;20239;-76
2022/04/21 09:48:02;;;;;;;8.38;2.92;;;19.30;83.10;;;;;;4236353;27;20200;-80
2022/04/21 09:50:13;;;;;;;4.40;2.70;;;19.40;82.90;;;;;;4239603;27;20269;-78
2022/04/21 09:52:27;;;;;;;4.50;2.70;;;19.40;82.60;;;;;;4243583;27;20293;-78
2022/04/21 09:54:31;;;;;;;5.97;2.65;;;19.50;82.60;;;;;;4241813;27;20261;-80
2022/04/21 09:56:34;;;;;;;8.30;2.60;;;19.50;82.30;;;;;;4242948;27;20217;-79
2022/04/21 09:58:39;;;;;;;10.05;2.85;;;19.50;82.30;;;;;;4240958;27;22008;-83
2022/04/21 10:00:42;;;;;;;39.45;5.03;;;19.50;82.60;;;;;;4236813;27;20551;-84
2022/04/21 10:02:45;;;;;;;5.93;2.80;;;19.50;82.90;;;;;;4236200;27;20710;-76
2022/04/21 10:04:50;;;;;;;8.55;3.38;;;19.40;83.00;;;;;;4236927;27;20212;-78
2022/04/21 10:06:53;;;;;;;23.45;4.40;;;19.40;82.70;;;;;;4240058;27;20631;-77
2022/04/21 10:08:57;;;;;;;10.23;3.53;;;19.50;82.50;;;;;;4239701;27;20218;-77
2022/04/21 10:11:01;;;;;;;6.82;2.70;;;19.50;82.70;;;;;;4237532;27;20217;-77
2022/04/21 10:13:05;;;;;;;6.43;2.80;;;19.50;82.60;;;;;;4241615;27;20217;-78
2022/04/21 10:15:09;;;;;;;6.10;2.65;;;19.60;82.10;;;;;;4238237;27;20220;-76
2022/04/21 10:17:13;;;;;;;6.85;2.72;;;19.50;81.90;;;;;;4242324;27;20237;-75
2022/04/21 10:19:19;;;;;;;8.93;2.88;;;19.50;81.90;;;;;;4241418;27;20213;-77
2022/04/21 10:21:32;;;;;;;4.75;2.90;;;19.50;82.20;;;;;;4241998;27;20866;-76
2022/04/21 10:23:38;;;;;;;4.38;2.67;;;19.60;83.00;;;;;;4237643;27;20220;-76
2022/04/21 10:25:42;;;;;;;6.15;2.60;;;19.50;83.20;;;;;;4236667;27;20233;-76
2022/04/21 10:27:47;;;;;;;4.88;2.67;;;19.60;83.20;;;;;;4236093;27;20221;-80
2022/04/21 10:29:51;;;;;;;4.65;2.40;;;19.50;83.70;;;;;;4239650;27;20318;-80
2022/04/21 10:31:56;;;;;;;3.75;3.03;;;19.60;83.80;;;;;;4234830;27;20268;-81
2022/04/21 10:34:28;;;;;;;6.93;2.20;;;19.60;83.40;;;;;;4244144;27;20820;-81
2022/04/21 10:36:54;;;;;;;5.28;2.45;;;19.70;83.50;;;;;;4212831;27;20246;-80
2022/04/21 10:39:12;;;;;;;4.57;2.60;;;19.80;82.90;;;;;;4242124;27;20282;-81
2022/04/21 10:41:47;;;;;;;;;;;;;;;;;;;;;
2022/04/21 10:44:43;;;;;;;5.15;2.80;;;19.80;81.40;;;;;;4243103;27;20629;-82
2022/04/21 10:46:47;;;;;;;6.70;2.90;;;19.80;81.60;;;;;;4217051;27;20619;-82
2022/04/21 10:48:50;;;;;;;5.78;2.72;;;19.80;82.30;;;;;;4235910;27;20294;-83
2022/04/21 10:50:53;;;;;;;3.67;2.58;;;19.80;81.60;;;;;;4248236;27;20221;-83
2022/04/21 10:57:56;;;;;;;5.20;2.50;;;19.80;81.50;;;;;;4244463;27;20229;-81
2022/04/21 11:00:09;;;;;;;3.63;2.63;;;19.90;82.00;;;;;;4245794;27;20617;-83
2022/04/21 11:02:12;;;;;;;4.55;1.95;;;19.80;81.80;;;;;;4244005;27;20225;-76
2022/04/21 11:04:22;;;;;;;3.67;2.30;;;19.70;82.00;;;;;;4239938;27;20217;-79
2022/04/21 11:06:40;;;;;;;5.72;2.38;;;19.70;81.70;;;;;;4241337;27;20686;-80
2022/04/21 11:08:46;;;;;;;4.63;2.58;;;19.70;81.00;;;;;;4245450;27;20254;-80
2022/04/21 11:11:11;;;;;;;4.35;2.58;;;19.80;80.70;;;;;;4242683;27;20266;-81
2022/04/21 11:14:19;;;;;;;5.22;2.58;;;19.80;80.80;;;;;;4243939;27;20657;-83
2022/04/21 11:16:50;;;;;;;6.20;2.50;;;19.90;81.70;;;;;;4243124;27;20209;-78
2022/04/21 11:19:34;;;;;;;4.72;2.33;;;19.90;80.80;;;;;;4241426;27;20270;-78
2022/04/21 11:21:52;;;;;;;7.22;2.25;;;19.80;81.40;;;;;;4237868;27;20213;-78
2022/04/21 11:24:03;;;;;;;6.40;2.03;;;19.80;82.20;;;;;;4237414;27;20742;-80
2022/04/21 11:26:30;;;;;;;2.58;1.88;;;19.80;80.70;;;;;;4235050;27;20489;-77
2022/04/21 11:28:33;;;;;;;6.38;2.58;;;19.80;81.00;;;;;;4233690;27;20217;-78
2022/04/21 11:30:37;;;;;;;5.10;2.55;;;19.90;80.10;;;;;;4237200;27;20233;-78
2022/04/21 11:33:01;;;;;;;6.30;2.78;;;19.80;79.30;;;;;;4237656;27;20275;-78